createdAt,value
2023-01-10T00:01:10.110Z,17.92
2023-01-10T00:04:13.961Z,17.72
2023-01-10T00:07:16.664Z,17.79
2023-01-10T00:10:18.951Z,17.60
2023-01-10T00:13:24.663Z,17.77
2023-01-10T00:16:27.735Z,17.74
2023-01-10T00:19:31.007Z,17.83
2023-01-10T00:22:33.581Z,17.84
2023-01-10T00:25:36.771Z,17.75
2023-01-10T00:28:39.974Z,17.80
2023-01-10T00:31:42.398Z,17.91
2023-01-10T00:34:45.375Z,17.75
2023-01-10T00:37:48.320Z,17.69
2023-01-10T00:40:50.883Z,17.76
2023-01-10T00:43:59.877Z,17.73
2023-01-10T00:47:02.911Z,17.74
2023-01-10T00:50:08.899Z,17.73
2023-01-10T00:53:12.587Z,17.85
2023-01-10T00:56:15.067Z,17.85
2023-01-10T00:59:17.451Z,17.83
2023-01-10T01:02:19.891Z,17.72
2023-01-10T01:05:22.548Z,17.65
2023-01-10T01:08:24.726Z,17.59
2023-01-10T01:11:27.179Z,17.44
2023-01-10T01:14:29.749Z,17.37
2023-01-10T01:17:39.977Z,17.40
2023-01-10T01:20:43.170Z,17.73
2023-01-10T01:23:45.361Z,17.59
2023-01-10T01:26:48.419Z,17.39
2023-01-10T01:29:51.123Z,17.35
2023-01-10T01:32:53.568Z,17.52
2023-01-10T01:35:56.366Z,17.57
2023-01-10T01:39:00.034Z,17.44
2023-01-10T01:42:02.923Z,17.38
2023-01-10T01:45:20.133Z,17.40
2023-01-10T01:48:27.566Z,17.25
2023-01-10T01:51:31.469Z,17.33
2023-01-10T01:54:34.767Z,17.25
2023-01-10T01:57:37.822Z,17.29
2023-01-10T02:00:40.145Z,17.26
2023-01-10T02:03:47.613Z,17.29
2023-01-10T02:06:55.596Z,17.35
2023-01-10T02:10:12.199Z,17.29
2023-01-10T02:13:16.380Z,17.30
2023-01-10T02:16:19.796Z,17.20
2023-01-10T02:19:25.259Z,17.13
2023-01-10T02:22:48.286Z,17.08
2023-01-10T02:25:56.167Z,17.07
2023-01-10T02:29:16.649Z,17.02
2023-01-10T02:32:48.002Z,16.98
2023-01-10T02:36:05.810Z,16.85
2023-01-10T02:39:22.962Z,16.86
2023-01-10T02:42:48.722Z,17.03
2023-01-10T02:45:59.758Z,16.93
2023-01-10T02:49:02.809Z,16.98
2023-01-10T02:52:04.973Z,17.11
2023-01-10T02:55:08.372Z,17.06
2023-01-10T02:58:28.252Z,17.05
2023-01-10T03:01:58.162Z,17.04
2023-01-10T03:05:19.603Z,16.99
2023-01-10T03:08:34.484Z,17.02
2023-01-10T03:11:41.490Z,16.96
2023-01-10T03:14:46.629Z,16.93
2023-01-10T03:17:55.664Z,16.98
2023-01-10T03:20:59.889Z,16.85
2023-01-10T03:24:08.164Z,16.79
2023-01-10T03:27:19.385Z,16.70
2023-01-10T03:30:38.818Z,16.81
2023-01-10T03:33:42.159Z,16.67
2023-01-10T03:37:03.547Z,16.71
2023-01-10T03:40:23.686Z,16.75
2023-01-10T03:43:55.586Z,16.76
2023-01-10T03:47:05.384Z,16.99
2023-01-10T03:50:23.442Z,16.98
2023-01-10T03:53:25.646Z,16.97
2023-01-10T03:56:28.462Z,16.97
2023-01-10T03:59:30.798Z,17.05
2023-01-10T04:02:33.243Z,17.15
2023-01-10T04:05:36.074Z,17.02
2023-01-10T04:08:38.431Z,16.99
2023-01-10T04:11:40.493Z,16.78
2023-01-10T04:14:43.054Z,16.83
2023-01-10T04:17:45.940Z,16.96
2023-01-10T04:20:47.936Z,16.88
2023-01-10T04:23:50.097Z,16.93
2023-01-10T04:26:52.311Z,16.93
2023-01-10T04:29:54.419Z,16.98
2023-01-10T04:32:56.659Z,17.01
2023-01-10T04:35:58.935Z,17.02
2023-01-10T04:39:01.555Z,16.94
2023-01-10T04:42:04.772Z,17.08
2023-01-10T04:45:12.626Z,16.91
2023-01-10T04:48:15.082Z,16.94
2023-01-10T04:51:19.987Z,16.91
2023-01-10T04:54:22.883Z,16.88
2023-01-10T04:57:24.991Z,16.91
2023-01-10T05:00:27.322Z,16.91
2023-01-10T05:03:29.668Z,16.93
2023-01-10T05:06:32.349Z,16.75
2023-01-10T05:09:35.156Z,16.81
2023-01-10T05:12:37.169Z,16.79
2023-01-10T05:15:39.265Z,16.77
2023-01-10T05:18:41.572Z,16.62
2023-01-10T05:21:43.700Z,16.73
2023-01-10T05:24:45.720Z,16.55
2023-01-10T05:27:47.860Z,16.65
2023-01-10T05:30:50.235Z,16.71
2023-01-10T05:33:52.814Z,16.70
2023-01-10T05:36:56.591Z,16.83
2023-01-10T05:40:00.178Z,16.92
2023-01-10T05:43:03.104Z,17.04
2023-01-10T05:46:05.602Z,16.97
2023-01-10T05:49:07.785Z,16.89
2023-01-10T05:52:12.410Z,16.89
2023-01-10T05:55:17.531Z,16.91
2023-01-10T05:58:20.010Z,16.91
2023-01-10T06:01:26.002Z,16.77
2023-01-10T06:04:28.058Z,16.71
2023-01-10T06:07:35.988Z,16.82
2023-01-10T06:10:40.156Z,17.12
2023-01-10T06:13:43.374Z,17.83
2023-01-10T06:16:46.696Z,18.73
2023-01-10T06:19:49.020Z,18.79
2023-01-10T06:22:51.591Z,19.21
2023-01-10T06:25:53.654Z,19.10
2023-01-10T06:28:55.803Z,19.43
2023-01-10T06:31:58.008Z,19.49
2023-01-10T06:35:00.116Z,19.74
2023-01-10T06:38:04.029Z,20.22
2023-01-10T06:41:13.258Z,21.26
2023-01-10T06:44:15.415Z,22.13
2023-01-10T06:47:19.663Z,22.73
2023-01-10T06:50:22.854Z,23.31
2023-01-10T06:53:25.592Z,23.70
2023-01-10T06:56:27.836Z,24.22
2023-01-10T06:59:29.992Z,24.42
2023-01-10T07:02:32.952Z,23.82
2023-01-10T07:05:36.204Z,22.86
2023-01-10T07:08:39.968Z,22.41
2023-01-10T07:11:42.149Z,21.75
2023-01-10T07:14:44.415Z,22.48
2023-01-10T07:17:46.407Z,22.71
2023-01-10T07:20:48.571Z,22.21
2023-01-10T07:23:51.089Z,22.01
2023-01-10T07:26:57.991Z,22.48
2023-01-10T07:30:00.843Z,21.98
2023-01-10T07:33:06.659Z,22.17
2023-01-10T07:36:08.844Z,22.78
2023-01-10T07:39:11.272Z,22.57
2023-01-10T07:42:14.547Z,22.11
2023-01-10T07:45:18.678Z,22.71
2023-01-10T07:48:21.368Z,22.71
2023-01-10T07:51:23.829Z,22.39
2023-01-10T07:54:26.574Z,22.65
2023-01-10T07:57:31.038Z,22.69
2023-01-10T08:00:32.999Z,22.20
2023-01-10T08:03:35.808Z,22.47
2023-01-10T08:06:37.951Z,22.92
2023-01-10T08:09:39.966Z,22.87
2023-01-10T08:12:42.091Z,22.31
2023-01-10T08:15:47.645Z,22.89
2023-01-10T08:18:49.851Z,22.61
2023-01-10T08:21:51.895Z,22.36
2023-01-10T08:24:54.200Z,22.45
2023-01-10T08:27:57.004Z,22.62
2023-01-10T08:30:59.272Z,21.93
2023-01-10T08:34:01.413Z,22.31
2023-01-10T08:37:03.628Z,22.83
2023-01-10T08:40:06.345Z,22.80
2023-01-10T08:43:12.147Z,22.18
2023-01-10T08:46:14.380Z,22.83
2023-01-10T08:49:16.611Z,22.87
2023-01-10T08:52:19.063Z,22.05
2023-01-10T08:55:22.790Z,22.77
2023-01-10T08:58:24.825Z,22.64
2023-01-10T09:04:32.799Z,22.33
2023-01-10T09:07:36.407Z,22.17
2023-01-10T09:10:38.406Z,22.50
2023-01-10T09:16:43.530Z,22.73
2023-01-10T09:19:46.279Z,22.74
2023-01-10T09:22:48.435Z,21.59
2023-01-10T09:25:54.278Z,22.57
2023-01-10T09:28:58.998Z,23.04
2023-01-10T09:32:01.409Z,22.11
2023-01-10T09:35:06.121Z,22.18
2023-01-10T09:38:11.975Z,21.94
2023-01-10T09:41:51.940Z,21.07
2023-01-10T09:45:03.761Z,21.97
2023-01-10T09:48:14.889Z,21.86
2023-01-10T09:51:42.657Z,21.14
2023-01-10T09:54:46.182Z,22.02
2023-01-10T09:57:49.149Z,22.82
2023-01-10T10:01:05.632Z,22.16
2023-01-10T10:04:37.588Z,22.21
2023-01-10T10:07:44.057Z,22.83
2023-01-10T10:11:11.405Z,22.84
2023-01-10T10:14:42.593Z,22.27
2023-01-10T10:17:51.713Z,23.12
2023-01-10T10:21:01.807Z,22.46
2023-01-10T10:24:29.816Z,21.81
2023-01-10T10:27:39.436Z,22.29
2023-01-10T10:31:00.482Z,22.01
2023-01-10T10:34:05.339Z,21.76
2023-01-10T10:37:19.486Z,22.54
2023-01-10T10:40:26.338Z,22.10
2023-01-10T10:43:36.908Z,21.38
2023-01-10T10:46:39.890Z,22.29
2023-01-10T10:49:59.879Z,22.61
2023-01-10T10:53:05.039Z,22.41
2023-01-10T10:56:14.039Z,22.53
2023-01-10T10:59:20.352Z,22.44
2023-01-10T11:02:38.077Z,22.18
2023-01-10T11:05:43.510Z,22.30
2023-01-10T11:08:47.676Z,22.91
2023-01-10T11:11:52.541Z,22.32
2023-01-10T11:14:55.468Z,21.25
2023-01-10T11:18:33.064Z,22.69
2023-01-10T11:21:38.905Z,21.71
2023-01-10T11:24:53.441Z,21.95
2023-01-10T11:28:04.436Z,23.62
2023-01-10T11:31:15.272Z,23.64
2023-01-10T11:34:30.289Z,22.69
2023-01-10T11:37:36.420Z,23.22
2023-01-10T11:40:40.587Z,23.54
2023-01-10T11:43:42.687Z,23.09
2023-01-10T11:46:50.831Z,23.09
2023-01-10T11:50:04.137Z,23.36
2023-01-10T11:53:07.643Z,21.87
2023-01-10T11:56:25.118Z,22.56
2023-01-10T11:59:28.557Z,23.08
2023-01-10T12:02:39.852Z,23.27
2023-01-10T12:05:52.009Z,22.85
2023-01-10T12:08:56.482Z,22.63
2023-01-10T12:12:18.411Z,21.67
2023-01-10T12:15:32.071Z,22.40
2023-01-10T12:18:34.496Z,23.12
2023-01-10T12:21:41.966Z,23.16
2023-01-10T12:24:52.352Z,22.68
2023-01-10T12:27:57.876Z,23.15
2023-01-10T12:31:01.389Z,22.87
2023-01-10T12:34:14.961Z,21.94
2023-01-10T12:37:32.244Z,22.42
2023-01-10T12:41:01.243Z,22.31
2023-01-10T12:44:15.199Z,22.34
2023-01-10T12:47:32.207Z,22.80
2023-01-10T12:50:45.736Z,22.87
2023-01-10T12:53:54.712Z,22.16
2023-01-10T12:57:05.641Z,22.48
2023-01-10T13:00:21.015Z,23.05
2023-01-10T13:03:31.754Z,22.68
2023-01-10T13:06:38.512Z,22.54
2023-01-10T13:09:43.370Z,23.07
2023-01-10T13:12:55.268Z,22.87
2023-01-10T13:16:34.183Z,22.66
2023-01-10T13:19:36.233Z,22.95
2023-01-10T13:22:38.528Z,23.16
2023-01-10T13:25:40.726Z,21.88
2023-01-10T13:28:56.264Z,22.53
2023-01-10T13:32:01.606Z,23.00
2023-01-10T13:35:19.460Z,22.19
2023-01-10T13:38:34.822Z,22.82
2023-01-10T13:42:14.255Z,22.69
2023-01-10T13:45:30.169Z,22.60
2023-01-10T13:48:32.242Z,22.60
2023-01-10T13:51:36.344Z,22.97
2023-01-10T13:54:38.432Z,23.01
2023-01-10T13:57:51.736Z,22.89
2023-01-10T14:01:17.554Z,23.19
2023-01-10T14:04:23.803Z,22.30
2023-01-10T14:07:42.441Z,22.55
2023-01-10T14:10:44.505Z,23.25
2023-01-10T14:13:56.599Z,22.83
2023-01-10T14:17:30.782Z,22.49
2023-01-10T14:20:44.837Z,23.21
2023-01-10T14:23:52.406Z,23.03
2023-01-10T14:26:57.481Z,22.67
2023-01-10T14:30:02.230Z,23.13
2023-01-10T14:33:16.252Z,23.16
2023-01-10T14:36:27.583Z,22.66
2023-01-10T14:39:42.542Z,23.27
2023-01-10T14:44:29.228Z,22.67
2023-01-10T14:47:34.737Z,22.80
2023-01-10T14:50:36.838Z,22.66
2023-01-10T14:53:45.892Z,21.97
2023-01-10T14:56:53.213Z,21.56
2023-01-10T15:00:09.334Z,22.85
2023-01-10T15:03:19.361Z,21.98
2023-01-10T15:06:21.639Z,21.43
2023-01-10T15:09:25.292Z,23.39
2023-01-10T15:12:31.469Z,23.45
2023-01-10T15:15:35.453Z,23.35
2023-01-10T15:18:47.261Z,23.34
2023-01-10T15:21:49.683Z,23.77
2023-01-10T15:25:00.012Z,23.13
2023-01-10T15:28:03.035Z,22.47
2023-01-10T15:31:08.752Z,23.27
2023-01-10T15:34:19.566Z,23.35
2023-01-10T15:37:26.805Z,22.85
2023-01-10T15:40:37.973Z,23.59
2023-01-10T15:43:40.669Z,23.60
2023-01-10T15:46:55.969Z,22.98
2023-01-10T15:50:00.268Z,23.41
2023-01-10T15:53:06.255Z,23.33
2023-01-10T15:56:16.308Z,21.97
2023-01-10T15:59:33.032Z,22.90
2023-01-10T16:02:35.419Z,23.14
2023-01-10T16:05:37.634Z,22.52
2023-01-10T16:08:39.951Z,22.56
2023-01-10T16:12:06.881Z,22.46
2023-01-10T16:15:30.200Z,21.61
2023-01-10T16:18:33.143Z,21.39
2023-01-10T16:21:39.669Z,21.48
2023-01-10T16:24:43.158Z,21.27
2023-01-10T16:27:46.416Z,20.86
2023-01-10T16:30:48.782Z,20.82
2023-01-10T16:33:52.537Z,20.64
2023-01-10T16:36:54.702Z,20.53
2023-01-10T16:39:59.749Z,20.54
2023-01-10T16:43:21.941Z,20.60
2023-01-10T16:46:26.447Z,20.33
2023-01-10T16:49:29.755Z,20.31
2023-01-10T16:52:32.511Z,20.27
2023-01-10T16:55:54.871Z,19.97
2023-01-10T16:58:59.995Z,19.65
2023-01-10T17:02:06.374Z,19.48
2023-01-10T17:09:24.187Z,19.92
2023-01-10T17:12:37.452Z,20.54
2023-01-10T17:15:39.630Z,21.02
2023-01-10T17:18:42.191Z,20.49
2023-01-10T17:21:44.335Z,19.75
2023-01-10T17:24:46.421Z,19.41
2023-01-10T17:27:48.918Z,19.20
2023-01-10T17:30:52.376Z,19.10
2023-01-10T17:33:57.725Z,19.00
2023-01-10T17:37:00.169Z,18.92
2023-01-10T17:40:05.397Z,18.95
2023-01-10T17:43:07.865Z,18.90
2023-01-10T17:46:11.285Z,18.92
2023-01-10T17:49:13.720Z,18.95
2023-01-10T17:52:19.142Z,18.73
2023-01-10T17:55:23.059Z,18.93
2023-01-10T17:58:28.610Z,18.77
2023-01-10T18:01:31.093Z,18.74
2023-01-10T18:04:38.393Z,18.54
2023-01-10T18:07:40.844Z,18.52
2023-01-10T18:10:42.948Z,18.63
2023-01-10T18:13:51.408Z,18.58
2023-01-10T18:16:57.033Z,18.51
2023-01-10T18:19:59.340Z,18.31
2023-01-10T18:23:20.473Z,18.35
2023-01-10T18:26:24.085Z,18.31
2023-01-10T18:29:26.725Z,18.31
2023-01-10T18:32:31.508Z,18.18
2023-01-10T18:35:36.455Z,18.13
2023-01-10T18:38:40.397Z,18.28
2023-01-10T18:41:42.981Z,18.39
2023-01-10T18:44:45.574Z,18.49
2023-01-10T18:47:52.557Z,19.01
2023-01-10T18:50:58.168Z,18.85
2023-01-10T18:54:07.121Z,18.99
2023-01-10T18:57:15.250Z,20.01
2023-01-10T19:00:17.731Z,22.19
2023-01-10T19:03:20.872Z,24.45
2023-01-10T19:06:25.422Z,27.01
2023-01-10T19:09:29.271Z,27.12
2023-01-10T19:12:31.398Z,24.70
2023-01-10T19:15:33.643Z,21.76
2023-01-10T19:18:36.705Z,20.25
2023-01-10T19:21:45.506Z,19.41
2023-01-10T19:24:47.708Z,18.81
2023-01-10T19:27:52.628Z,18.86
2023-01-10T19:31:04.292Z,18.93
2023-01-10T19:34:07.226Z,18.79
2023-01-10T19:37:11.938Z,18.75
2023-01-10T19:40:14.629Z,18.84
2023-01-10T19:43:18.053Z,19.01
2023-01-10T19:46:20.208Z,19.26
2023-01-10T19:49:24.525Z,19.26
2023-01-10T19:52:27.711Z,19.60
2023-01-10T19:55:29.909Z,19.68
2023-01-10T19:58:33.094Z,19.79
2023-01-10T20:01:35.436Z,19.88
2023-01-10T20:04:38.198Z,19.84
2023-01-10T20:07:40.501Z,19.69
2023-01-10T20:10:42.759Z,19.65
2023-01-10T20:13:48.769Z,19.61
2023-01-10T20:16:52.555Z,19.43
2023-01-10T20:19:55.854Z,19.43
2023-01-10T20:22:58.109Z,19.34
2023-01-10T20:26:06.457Z,19.01
2023-01-10T20:29:09.404Z,19.33
2023-01-10T20:32:15.220Z,19.28
2023-01-10T20:35:26.711Z,19.20
2023-01-10T20:38:30.824Z,19.16
2023-01-10T20:41:33.516Z,19.09
2023-01-10T20:44:35.876Z,19.03
2023-01-10T20:47:41.560Z,18.92
2023-01-10T20:51:05.246Z,18.81
2023-01-10T20:54:16.876Z,18.53
2023-01-10T20:57:20.513Z,18.98
2023-01-10T21:00:22.851Z,19.78
2023-01-10T21:03:26.630Z,19.69
2023-01-10T21:06:31.592Z,19.43
2023-01-10T21:09:34.078Z,19.24
2023-01-10T21:12:36.072Z,19.22
2023-01-10T21:15:43.748Z,19.20
2023-01-10T21:18:46.913Z,18.90
2023-01-10T21:21:49.026Z,18.90
2023-01-10T21:25:12.472Z,18.76
2023-01-10T21:28:14.724Z,18.64
2023-01-10T21:31:19.768Z,18.41
2023-01-10T21:34:22.241Z,18.60
2023-01-10T21:37:24.579Z,18.46
2023-01-10T21:40:27.746Z,18.25
2023-01-10T21:43:32.307Z,18.43
2023-01-10T21:46:38.014Z,18.40
2023-01-10T21:49:40.220Z,18.33
2023-01-10T21:52:45.836Z,18.35
2023-01-10T21:55:53.739Z,18.29
2023-01-10T21:58:56.230Z,18.36
2023-01-10T22:01:58.613Z,18.17
2023-01-10T22:05:02.007Z,18.41
2023-01-10T22:08:05.563Z,18.29
2023-01-10T22:11:17.081Z,18.17
2023-01-10T22:14:19.575Z,17.97
2023-01-10T22:17:22.191Z,17.73
2023-01-10T22:20:24.406Z,17.94
2023-01-10T22:23:29.134Z,17.71
2023-01-10T22:26:32.627Z,17.75
2023-01-10T22:29:36.622Z,17.92
2023-01-10T22:32:41.746Z,17.81
2023-01-10T22:35:46.440Z,17.93
2023-01-10T22:38:52.046Z,17.72
2023-01-10T22:41:55.573Z,17.65
2023-01-10T22:44:58.214Z,17.88
2023-01-10T22:48:02.617Z,17.64
2023-01-10T22:51:05.868Z,17.63
2023-01-10T22:54:12.707Z,17.57
2023-01-10T22:57:19.518Z,17.29
2023-01-10T23:00:23.014Z,17.15
2023-01-10T23:03:25.448Z,17.17
2023-01-10T23:06:29.093Z,17.29
2023-01-10T23:09:31.243Z,17.13
2023-01-10T23:12:35.048Z,17.24
2023-01-10T23:15:37.274Z,17.19
2023-01-10T23:18:40.923Z,17.14
2023-01-10T23:21:44.519Z,16.93
2023-01-10T23:24:47.753Z,16.96
2023-01-10T23:27:52.545Z,16.81
2023-01-10T23:30:56.048Z,16.73
2023-01-10T23:34:00.908Z,16.82
2023-01-10T23:37:03.785Z,16.77
2023-01-10T23:40:06.620Z,16.65
2023-01-10T23:43:08.639Z,16.58
2023-01-10T23:46:10.926Z,16.55
2023-01-10T23:49:13.629Z,16.49
2023-01-10T23:52:15.843Z,16.50
2023-01-10T23:55:20.084Z,16.47
2023-01-10T23:58:22.582Z,16.53
